createdAt,value
2023-05-05T00:02:05.748Z,3.72
2023-05-05T00:05:10.057Z,3.67
2023-05-05T00:08:14.620Z,4.10
2023-05-05T00:11:18.736Z,3.70
2023-05-05T00:14:22.442Z,3.75
2023-05-05T00:17:26.910Z,4.07
2023-05-05T00:20:31.535Z,4.18
2023-05-05T00:23:35.961Z,4.10
2023-05-05T00:26:40.102Z,3.90
2023-05-05T00:29:44.106Z,4.07
2023-05-05T00:32:49.215Z,3.53
2023-05-05T00:35:53.396Z,3.72
2023-05-05T00:38:57.725Z,4.30
2023-05-05T00:42:04.502Z,4.13
2023-05-05T00:45:10.086Z,4.45
2023-05-05T00:48:14.503Z,4.43
2023-05-05T00:51:20.249Z,4.10
2023-05-05T00:54:24.269Z,4.28
2023-05-05T00:57:29.003Z,4.32
2023-05-05T01:00:33.344Z,4.25
2023-05-05T01:03:38.916Z,4.70
2023-05-05T01:07:03.909Z,4.55
2023-05-05T01:10:20.300Z,4.60
2023-05-05T01:13:41.438Z,4.18
2023-05-05T01:16:59.994Z,4.50
2023-05-05T01:20:52.446Z,4.55
2023-05-05T01:24:21.178Z,4.50
2023-05-05T01:28:05.163Z,4.57
2023-05-05T01:31:38.027Z,4.45
2023-05-05T01:34:49.413Z,4.40
2023-05-05T01:38:01.825Z,4.40
2023-05-05T01:41:13.503Z,5.07
2023-05-05T01:44:20.039Z,5.00
2023-05-05T01:47:24.871Z,4.43
2023-05-05T01:50:29.436Z,4.80
2023-05-05T01:53:35.467Z,4.53
2023-05-05T01:56:42.017Z,5.05
2023-05-05T01:59:46.489Z,4.63
2023-05-05T02:02:51.743Z,5.05
2023-05-05T02:05:58.152Z,5.22
2023-05-05T02:09:03.538Z,5.50
2023-05-05T02:12:08.880Z,5.10
2023-05-05T02:15:14.173Z,5.32
2023-05-05T02:18:18.787Z,5.13
2023-05-05T02:21:23.117Z,5.40
2023-05-05T02:24:27.405Z,5.30
2023-05-05T02:27:34.843Z,5.20
2023-05-05T02:30:39.714Z,5.15
2023-05-05T02:33:45.682Z,5.45
2023-05-05T02:36:52.592Z,6.00
2023-05-05T02:40:06.230Z,5.40
2023-05-05T02:43:13.769Z,4.97
2023-05-05T02:46:18.172Z,5.38
2023-05-05T02:49:22.234Z,5.68
2023-05-05T02:52:26.096Z,5.00
2023-05-05T02:55:39.091Z,5.50
2023-05-05T02:58:54.554Z,5.30
2023-05-05T03:02:24.489Z,5.25
2023-05-05T03:05:37.495Z,4.93
2023-05-05T03:09:15.735Z,5.10
2023-05-05T03:12:22.433Z,5.13
2023-05-05T03:15:34.149Z,4.80
2023-05-05T03:18:40.341Z,4.55
2023-05-05T03:21:44.661Z,5.10
2023-05-05T03:24:51.798Z,4.35
2023-05-05T03:27:56.081Z,4.28
2023-05-05T03:31:00.482Z,4.65
2023-05-05T03:34:04.420Z,4.70
2023-05-05T03:37:08.585Z,5.03
2023-05-05T03:40:13.258Z,4.43
2023-05-05T03:43:17.356Z,5.00
2023-05-05T03:46:21.595Z,4.65
2023-05-05T03:49:25.796Z,4.75
2023-05-05T03:52:30.210Z,4.70
2023-05-05T03:55:34.364Z,4.90
2023-05-05T03:58:38.361Z,4.53
2023-05-05T04:01:42.191Z,4.13
2023-05-05T04:04:46.441Z,5.10
2023-05-05T04:07:50.797Z,4.50
2023-05-05T04:10:55.181Z,5.00
2023-05-05T04:13:59.274Z,4.53
2023-05-05T04:17:04.028Z,4.28
2023-05-05T04:20:09.291Z,4.57
2023-05-05T04:23:14.112Z,4.50
2023-05-05T04:26:18.391Z,4.45
2023-05-05T04:29:22.598Z,4.82
2023-05-05T04:32:27.122Z,5.05
2023-05-05T04:35:31.377Z,4.90
2023-05-05T04:38:35.696Z,4.60
2023-05-05T04:41:39.588Z,5.22
2023-05-05T04:44:43.691Z,5.03
2023-05-05T04:47:47.832Z,5.15
2023-05-05T04:50:52.007Z,5.78
2023-05-05T04:53:56.386Z,5.88
2023-05-05T04:57:00.426Z,5.90
2023-05-05T05:00:05.421Z,5.40
2023-05-05T05:03:10.646Z,5.47
2023-05-05T05:06:14.842Z,5.22
2023-05-05T05:09:19.423Z,5.00
2023-05-05T05:12:23.585Z,5.25
2023-05-05T05:15:27.701Z,5.00
2023-05-05T05:18:31.896Z,5.65
2023-05-05T05:21:36.261Z,5.40
2023-05-05T05:24:40.392Z,5.10
2023-05-05T05:27:44.768Z,5.50
2023-05-05T05:30:52.035Z,5.22
2023-05-05T05:33:56.409Z,5.20
2023-05-05T05:37:01.215Z,5.45
2023-05-05T05:40:06.537Z,5.25
2023-05-05T05:43:10.560Z,4.97
2023-05-05T05:46:15.186Z,5.05
2023-05-05T05:49:19.470Z,5.05
2023-05-05T05:52:23.693Z,4.97
2023-05-05T05:55:27.893Z,4.43
2023-05-05T05:58:31.969Z,5.28
2023-05-05T06:01:36.782Z,4.88
2023-05-05T06:04:40.971Z,4.35
2023-05-05T06:07:45.305Z,4.97
2023-05-05T06:10:49.565Z,4.78
2023-05-05T06:13:53.559Z,5.30
2023-05-05T06:16:57.714Z,4.85
2023-05-05T06:20:02.126Z,4.80
2023-05-05T06:23:06.660Z,5.05
2023-05-05T06:26:10.775Z,4.53
2023-05-05T06:29:14.978Z,4.22
2023-05-05T06:32:20.353Z,4.43
2023-05-05T06:35:24.756Z,4.20
2023-05-05T06:38:28.609Z,4.22
2023-05-05T06:41:32.810Z,4.07
2023-05-05T06:44:37.105Z,4.13
2023-05-05T06:47:42.408Z,4.03
2023-05-05T06:50:46.577Z,4.30
2023-05-05T06:53:51.240Z,3.72
2023-05-05T06:56:55.052Z,4.13
2023-05-05T06:59:59.843Z,3.92
2023-05-05T07:03:03.849Z,3.92
2023-05-05T07:06:07.851Z,3.88
2023-05-05T07:09:12.611Z,3.78
2023-05-05T07:12:16.990Z,3.78
2023-05-05T07:15:28.678Z,3.63
2023-05-05T07:18:33.520Z,3.25
2023-05-05T07:21:39.634Z,3.60
2023-05-05T07:24:43.776Z,3.42
2023-05-05T07:27:47.959Z,2.90
2023-05-05T07:30:52.097Z,3.40
2023-05-05T07:33:55.766Z,3.10
2023-05-05T07:37:00.193Z,2.90
2023-05-05T07:40:04.905Z,3.40
2023-05-05T07:43:09.127Z,3.45
2023-05-05T07:46:13.816Z,3.60
2023-05-05T07:49:18.221Z,3.10
2023-05-05T07:52:33.145Z,3.08
2023-05-05T07:58:50.406Z,3.03
2023-05-05T08:01:55.101Z,3.45
2023-05-05T08:04:59.123Z,3.20
2023-05-05T08:08:03.710Z,3.30
2023-05-05T08:11:07.952Z,3.28
2023-05-05T08:14:12.001Z,2.97
2023-05-05T08:17:18.938Z,3.00
2023-05-05T08:20:28.202Z,3.22
2023-05-05T08:23:33.628Z,2.90
2023-05-05T08:26:37.921Z,3.10
2023-05-05T08:29:42.102Z,3.05
2023-05-05T08:32:46.945Z,3.60
2023-05-05T08:35:51.111Z,3.30
2023-05-05T08:38:55.399Z,3.17
2023-05-05T08:41:59.706Z,2.70
2023-05-05T08:45:04.319Z,3.22
2023-05-05T08:48:08.750Z,3.10
2023-05-05T08:51:20.079Z,2.97
2023-05-05T08:54:27.683Z,2.70
2023-05-05T08:57:40.994Z,2.92
2023-05-05T09:00:46.012Z,2.75
2023-05-05T09:03:50.614Z,2.83
2023-05-05T09:06:58.316Z,2.60
2023-05-05T09:10:05.022Z,2.50
2023-05-05T09:13:09.600Z,2.70
2023-05-05T09:16:13.939Z,2.47
2023-05-05T09:19:17.986Z,3.00
2023-05-05T09:22:33.371Z,2.60
2023-05-05T09:25:37.886Z,3.03
2023-05-05T09:28:51.750Z,2.30
2023-05-05T09:32:08.408Z,2.80
2023-05-05T09:35:13.964Z,2.88
2023-05-05T09:38:19.437Z,2.80
2023-05-05T09:41:37.813Z,2.60
2023-05-05T09:44:42.272Z,2.42
2023-05-05T09:47:47.565Z,2.75
2023-05-05T09:50:52.457Z,2.30
2023-05-05T09:53:57.241Z,2.20
2023-05-05T09:57:01.429Z,2.15
2023-05-05T10:00:06.692Z,2.15
2023-05-05T10:03:10.750Z,1.90
2023-05-05T10:06:14.811Z,1.80
2023-05-05T10:09:18.880Z,2.10
2023-05-05T10:12:25.242Z,2.00
2023-05-05T10:15:29.031Z,2.30
2023-05-05T10:18:36.744Z,2.05
2023-05-05T10:21:46.447Z,2.00
2023-05-05T10:24:58.054Z,1.95
2023-05-05T10:28:06.405Z,1.90
2023-05-05T10:31:26.582Z,2.00
2023-05-05T10:34:38.398Z,2.20
2023-05-05T10:37:44.649Z,2.05
2023-05-05T10:40:49.701Z,1.73
2023-05-05T10:43:58.748Z,1.90
2023-05-05T10:47:03.288Z,2.13
2023-05-05T10:50:31.418Z,2.47
2023-05-05T10:53:44.461Z,2.10
2023-05-05T10:56:49.333Z,2.20
2023-05-05T10:59:53.193Z,2.10
2023-05-05T11:03:16.126Z,2.35
2023-05-05T11:06:20.426Z,2.15
2023-05-05T11:09:28.687Z,2.13
2023-05-05T11:12:53.320Z,2.08
2023-05-05T11:15:59.115Z,2.10
2023-05-05T11:19:41.472Z,2.00
2023-05-05T11:23:04.031Z,2.50
2023-05-05T11:26:08.917Z,2.15
2023-05-05T11:29:12.875Z,2.38
2023-05-05T11:32:17.054Z,2.28
2023-05-05T11:35:21.907Z,2.20
2023-05-05T11:38:51.179Z,2.10
2023-05-05T11:42:10.393Z,2.13
2023-05-05T11:45:23.306Z,2.00
2023-05-05T11:48:27.472Z,2.05
2023-05-05T11:51:32.098Z,2.00
2023-05-05T11:54:42.106Z,1.90
2023-05-05T11:57:45.932Z,1.80
2023-05-05T12:00:50.124Z,1.98
2023-05-05T12:03:54.605Z,2.10
2023-05-05T12:07:01.563Z,1.80
2023-05-05T12:10:07.258Z,1.80
2023-05-05T12:13:19.285Z,2.10
2023-05-05T12:16:23.650Z,2.25
2023-05-05T12:19:30.346Z,2.53
2023-05-05T12:22:34.248Z,2.10
2023-05-05T12:25:39.677Z,2.10
2023-05-05T12:28:47.967Z,2.15
2023-05-05T12:31:51.994Z,2.17
2023-05-05T12:34:59.349Z,2.08
2023-05-05T12:38:04.013Z,2.22
2023-05-05T12:41:08.087Z,2.25
2023-05-05T12:44:12.474Z,2.20
2023-05-05T12:47:32.895Z,2.35
2023-05-05T12:50:37.188Z,2.17
2023-05-05T12:53:41.117Z,2.40
2023-05-05T12:56:48.106Z,2.58
2023-05-05T12:59:53.389Z,2.10
2023-05-05T13:02:58.139Z,2.05
2023-05-05T13:06:18.190Z,2.38
2023-05-05T13:09:26.975Z,2.33
2023-05-05T13:12:31.126Z,2.53
2023-05-05T13:15:35.262Z,2.10
2023-05-05T13:18:49.630Z,2.90
2023-05-05T13:21:54.691Z,2.22
2023-05-05T13:24:58.728Z,2.00
2023-05-05T13:28:02.985Z,2.45
2023-05-05T13:31:07.839Z,2.30
2023-05-05T13:34:12.570Z,2.40
2023-05-05T13:37:16.388Z,2.30
2023-05-05T13:40:21.003Z,2.47
2023-05-05T13:43:25.246Z,2.40
2023-05-05T13:46:29.618Z,1.85
2023-05-05T13:49:35.373Z,2.30
2023-05-05T13:52:39.943Z,2.30
2023-05-05T13:55:44.678Z,2.10
2023-05-05T13:58:48.469Z,2.03
2023-05-05T14:01:52.773Z,2.40
2023-05-05T14:04:56.991Z,2.30
2023-05-05T14:08:01.305Z,2.55
2023-05-05T14:11:05.390Z,2.22
2023-05-05T14:14:09.552Z,2.30
2023-05-05T14:17:13.985Z,2.13
2023-05-05T14:20:18.264Z,2.25
2023-05-05T14:23:22.265Z,2.40
2023-05-05T14:26:26.338Z,2.67
2023-05-05T14:29:30.706Z,1.80
2023-05-05T14:32:34.742Z,2.20
2023-05-05T14:35:38.892Z,2.28
2023-05-05T14:38:42.938Z,2.25
2023-05-05T14:41:47.072Z,2.22
2023-05-05T14:44:51.071Z,2.30
2023-05-05T14:47:55.704Z,2.55
2023-05-05T14:50:59.824Z,2.20
2023-05-05T14:54:07.449Z,2.25
2023-05-05T14:57:15.942Z,2.00
2023-05-05T15:00:19.929Z,2.65
2023-05-05T15:03:24.595Z,2.28
2023-05-05T15:06:29.110Z,1.90
2023-05-05T15:09:33.345Z,2.00
2023-05-05T15:12:37.617Z,2.20
2023-05-05T15:15:41.613Z,2.03
2023-05-05T15:18:45.975Z,2.20
2023-05-05T15:21:53.214Z,2.15
2023-05-05T15:24:57.404Z,2.22
2023-05-05T15:28:02.007Z,2.65
2023-05-05T15:31:06.294Z,2.33
2023-05-05T15:34:09.973Z,2.08
2023-05-05T15:37:14.082Z,2.20
2023-05-05T15:40:18.413Z,2.20
2023-05-05T15:43:22.673Z,1.98
2023-05-05T15:46:26.885Z,2.25
2023-05-05T15:49:31.156Z,2.22
2023-05-05T15:52:35.590Z,2.10
2023-05-05T15:55:40.229Z,2.63
2023-05-05T15:58:44.374Z,3.05
2023-05-05T16:01:48.858Z,2.40
2023-05-05T16:04:53.550Z,2.30
2023-05-05T16:07:57.792Z,2.50
2023-05-05T16:11:02.035Z,2.60
2023-05-05T16:14:06.339Z,3.13
2023-05-05T16:17:10.244Z,3.45
2023-05-05T16:20:14.433Z,3.47
2023-05-05T16:23:18.461Z,4.10
2023-05-05T16:26:22.374Z,3.13
2023-05-05T16:29:26.651Z,2.70
2023-05-05T16:32:30.762Z,3.20
2023-05-05T16:35:36.170Z,3.28
2023-05-05T16:38:41.070Z,2.83
2023-05-05T16:41:45.152Z,3.35
2023-05-05T16:44:49.026Z,2.85
2023-05-05T16:47:55.409Z,3.35
2023-05-05T16:50:59.395Z,3.55
2023-05-05T16:54:03.926Z,2.90
2023-05-05T16:57:08.262Z,3.20
2023-05-05T17:00:12.708Z,3.97
2023-05-05T17:03:17.753Z,3.15
2023-05-05T17:06:21.649Z,3.00
2023-05-05T17:09:27.228Z,3.00
2023-05-05T17:12:31.358Z,3.20
2023-05-05T17:15:36.156Z,2.67
2023-05-05T17:18:40.090Z,2.65
2023-05-05T17:21:44.145Z,3.10
2023-05-05T17:24:48.018Z,3.20
2023-05-05T17:27:52.775Z,2.97
2023-05-05T17:30:59.476Z,3.00
2023-05-05T17:34:03.410Z,2.90
2023-05-05T17:37:07.891Z,2.65
2023-05-05T17:40:12.085Z,2.70
2023-05-05T17:43:16.460Z,2.80
2023-05-05T17:46:20.980Z,3.10
2023-05-05T17:49:25.482Z,3.67
2023-05-05T17:52:29.488Z,2.97
2023-05-05T17:55:33.748Z,3.67
2023-05-05T17:58:38.372Z,3.10
2023-05-05T18:01:42.727Z,3.40
2023-05-05T18:04:47.417Z,2.85
2023-05-05T18:07:51.761Z,3.10
2023-05-05T18:10:56.047Z,3.20
2023-05-05T18:14:00.333Z,2.90
2023-05-05T18:17:04.693Z,3.10
2023-05-05T18:20:10.211Z,3.28
2023-05-05T18:23:14.596Z,3.33
2023-05-05T18:26:18.580Z,3.33
2023-05-05T18:29:22.870Z,2.95
2023-05-05T18:32:27.572Z,2.88
2023-05-05T18:35:31.748Z,3.30
2023-05-05T18:38:35.733Z,3.20
2023-05-05T18:41:39.852Z,2.95
2023-05-05T18:44:44.373Z,3.05
2023-05-05T18:47:48.638Z,3.00
2023-05-05T18:50:52.880Z,3.25
2023-05-05T18:53:57.025Z,2.90
2023-05-05T18:57:01.297Z,3.13
2023-05-05T19:00:05.797Z,3.05
2023-05-05T19:03:10.159Z,3.40
2023-05-05T19:06:14.746Z,3.38
2023-05-05T19:09:19.071Z,3.40
2023-05-05T19:12:23.152Z,3.45
2023-05-05T19:15:27.936Z,3.67
2023-05-05T19:18:32.550Z,3.70
2023-05-05T19:21:36.667Z,3.80
2023-05-05T19:24:40.727Z,3.50
2023-05-05T19:27:44.654Z,3.65
2023-05-05T19:30:48.899Z,4.00
2023-05-05T19:33:57.465Z,3.75
2023-05-05T19:37:01.450Z,3.83
2023-05-05T19:40:06.304Z,3.90
2023-05-05T19:43:10.544Z,4.00
2023-05-05T19:46:14.606Z,4.30
2023-05-05T19:49:18.930Z,4.50
2023-05-05T19:52:23.227Z,4.43
2023-05-05T19:55:27.417Z,4.25
2023-05-05T19:58:54.083Z,4.75
2023-05-05T20:01:58.049Z,4.40
2023-05-05T20:05:02.164Z,5.00
2023-05-05T20:08:06.179Z,5.38
2023-05-05T20:11:10.406Z,5.22
2023-05-05T20:14:14.738Z,5.38
2023-05-05T20:17:20.506Z,4.72
2023-05-05T20:20:25.404Z,5.68
2023-05-05T20:23:29.491Z,5.28
2023-05-05T20:26:33.620Z,5.57
2023-05-05T20:29:37.913Z,5.40
2023-05-05T20:32:42.070Z,5.10
2023-05-05T20:35:47.187Z,5.30
2023-05-05T20:38:51.930Z,5.00
2023-05-05T20:41:56.126Z,5.43
2023-05-05T20:45:01.170Z,5.38
2023-05-05T20:48:07.410Z,5.95
2023-05-05T20:51:11.984Z,5.07
2023-05-05T20:54:16.197Z,5.38
2023-05-05T20:57:20.087Z,5.78
2023-05-05T21:00:25.466Z,5.50
2023-05-05T21:03:29.869Z,5.75
2023-05-05T21:06:34.292Z,5.35
2023-05-05T21:09:38.440Z,5.10
2023-05-05T21:12:42.494Z,5.20
2023-05-05T21:15:46.761Z,5.18
2023-05-05T21:18:50.783Z,5.15
2023-05-05T21:21:58.850Z,4.85
2023-05-05T21:25:15.332Z,5.13
2023-05-05T21:28:19.378Z,5.65
2023-05-05T21:31:23.731Z,6.43
2023-05-05T21:34:28.035Z,5.90
2023-05-05T21:37:32.228Z,5.90
2023-05-05T21:40:36.225Z,6.50
2023-05-05T21:43:40.283Z,6.60
2023-05-05T21:46:44.418Z,6.18
2023-05-05T21:49:48.808Z,5.70
2023-05-05T21:52:52.968Z,5.70
2023-05-05T21:55:57.412Z,6.60
2023-05-05T21:59:01.250Z,6.10
2023-05-05T22:02:05.511Z,6.47
2023-05-05T22:05:10.488Z,6.28
2023-05-05T22:08:14.516Z,6.78
2023-05-05T22:11:19.145Z,6.20
2023-05-05T22:14:23.228Z,6.20
2023-05-05T22:17:27.694Z,6.85
2023-05-05T22:20:32.257Z,6.80
2023-05-05T22:23:37.158Z,7.13
2023-05-05T22:26:43.171Z,6.80
2023-05-05T22:29:47.471Z,6.30
2023-05-05T22:32:51.401Z,7.40
2023-05-05T22:35:55.587Z,6.90
2023-05-05T22:38:59.812Z,7.65
2023-05-05T22:42:04.268Z,8.00
2023-05-05T22:45:09.601Z,7.55
2023-05-05T22:48:13.862Z,7.70
2023-05-05T22:51:17.847Z,7.82
2023-05-05T22:54:21.986Z,8.50
2023-05-05T22:57:26.150Z,8.60
2023-05-05T23:00:30.122Z,8.73
2023-05-05T23:03:34.155Z,8.82
2023-05-05T23:06:40.112Z,8.90
2023-05-05T23:09:44.128Z,8.75
2023-05-05T23:12:48.293Z,8.85
2023-05-05T23:15:52.345Z,8.23
2023-05-05T23:18:56.315Z,8.82
2023-05-05T23:22:00.895Z,9.10
2023-05-05T23:25:05.288Z,8.55
2023-05-05T23:28:09.910Z,8.32
2023-05-05T23:31:13.777Z,8.50
2023-05-05T23:34:17.981Z,8.65
2023-05-05T23:37:23.011Z,9.20
2023-05-05T23:40:26.892Z,9.02
2023-05-05T23:43:31.562Z,8.75
2023-05-05T23:46:35.726Z,8.93
2023-05-05T23:49:39.949Z,8.10
2023-05-05T23:52:44.303Z,8.88
2023-05-05T23:55:48.407Z,9.60
2023-05-05T23:58:53.099Z,8.95
